Norcatur, KS (67653)

7:37 PM CST on January 29, 2015 (GMT -0600)
HADS PRAIRIE DOG CREEK AT COUNTY ROAD KS US USGS | Change Station
CLOSE
Current Station
Personal Weather Station
Location: Norcatur, KS
Elevation: 2350 ft
Nearby Weather Stations

Elev 2350 ft 39.77 °N, 100.10 °W | Updated 2 hours ago

Partly Cloudy
Partly Cloudy
45 °F
Feels Like 45 °F
N
Wind Variable Wind from North
Gusts 0.0 mph

Today
High -- | Low -- °F
--% Chance of Precip.
Yesterday
High -- | Low -- °F
Precip. -- in
7:51 AM 5:56 PM
Waxing Gibbous, 78% visible
Pressure 30.56 in
Visibility 10.0 miles
Clouds Clear
Windchill 45 °F
Dew Point Not available.
Humidity Not available.
Rainfall 0.00 in
Snow Depth Not available.
UV 0 out of 12
Pollen .40 out of 12
Air Quality Not available.
Flu Activity Not available.
METAR KMCK 300053Z AUTO 30004KT 10SM CLR 03/M07 A3048 RMK AO2 SLP346 T00281067

More Conditions Fewer Conditions

Pressure 30.56 in
Visibility 10.0 miles
Clouds Clear
Windchill 45 °F
Dew Point Not available.
Humidity Not available.
Rainfall 0.00 in
Snow Depth Not available.
UV 0 out of 12
Pollen .40 out of 12
Air Quality Not available.
Flu Activity Not available.
METAR KMCK 300053Z AUTO 30004KT 10SM CLR 03/M07 A3048 RMK AO2 SLP346 T00281067

More Conditions Fewer Conditions

10-Day Weather Forecast

Almanac

Astronomy

Jan. 29, 2015 Rise Set
Actual Time
Civil Twilight
Nautical Twilight
Astronomical Twilight
Moon
Length of Visible Light
Length of Day
Tomorrow will be .
, % of the Moon is Illuminated

Today's Extremes

State Highs State Lows

Community

WunderPhotos

Upload Photos

1,791,668 photos uploaded!

WunderBlogs® & News

Nearby

Air Quality

  Air Quality AQ Index Pollutant
Not available.

Snow Depth

Station Depth Elevation

Earthquake Activity

City Distance Mag. Time & Date
Minimum magnitude displayed is 2.5.

Coastal Water Temperatures

Place Temperature

Nearby Weather Stations